Time;durP1;ratioP1;P1;durP2;ratioP2;P2;SDS_P1;SDS_P2;PMS_P1;PMS_P2;Temp;Humidity;BMP_temperature;BMP_pressure;BME280_temperature;BME280_humidity;BME280_pressure;Samples;Min_cycle;Max_cycle;Signal;HPM_P1;HPM_P2
2023/08/23 00:01:48;;;;;;;4.80;4.30;;;;;;;29.71;61.42;98872.88;4928423;28;102886;-75
2023/08/23 00:04:16;;;;;;;4.18;3.78;;;;;;;29.76;61.04;98872.16;4910430;28;103074;-75
2023/08/23 00:06:44;;;;;;;5.32;4.82;;;;;;;29.23;62.53;98872.81;4926229;28;103423;-76
2023/08/23 00:09:12;;;;;;;5.20;4.60;;;;;;;28.96;64.53;98871.41;4909938;28;103354;-75
2023/08/23 00:11:44;;;;;;;6.75;4.70;;;;;;;28.34;65.67;98869.59;4928299;28;102907;-75
2023/08/23 00:14:12;;;;;;;5.25;4.75;;;;;;;28.49;65.22;98858.41;4927597;28;102659;-75
2023/08/23 00:16:40;;;;;;;4.45;4.05;;;;;;;29.11;62.99;98869.13;4926213;28;103344;-74
2023/08/23 00:19:10;;;;;;;5.75;4.45;;;;;;;29.28;62.31;98853.91;4910172;28;104596;-75
2023/08/23 00:21:40;;;;;;;7.00;5.07;;;;;;;28.27;66.65;98862.56;4927857;28;102885;-75
2023/08/23 00:24:08;;;;;;;5.45;4.70;;;;;;;28.63;65.52;98860.00;4927940;28;103882;-76
2023/08/23 00:26:36;;;;;;;5.18;4.38;;;;;;;28.72;64.81;98861.34;4927358;28;103274;-75
2023/08/23 00:29:05;;;;;;;4.90;4.20;;;;;;;29.12;63.49;98868.09;4927323;28;103454;-77
2023/08/23 00:31:33;;;;;;;4.10;3.70;;;;;;;29.10;63.25;98863.94;4924767;28;102954;-75
2023/08/23 00:34:01;;;;;;;6.30;4.90;;;;;;;28.20;66.06;98859.88;4910400;28;102710;-75
2023/08/23 00:36:29;;;;;;;4.95;4.55;;;;;;;28.34;65.77;98861.44;4926755;28;104442;-75
2023/08/23 00:38:58;;;;;;;5.68;4.30;;;;;;;28.33;66.42;98861.66;4893721;28;103666;-75
2023/08/23 00:41:26;;;;;;;5.43;4.82;;;;;;;28.50;65.59;98855.47;4909688;28;102656;-76
2023/08/23 00:43:56;;;;;;;4.70;4.30;;;;;;;28.99;63.76;98860.06;4925782;28;102928;-76
2023/08/23 00:46:25;;;;;;;4.50;4.10;;;;;;;29.24;62.42;98855.44;4925915;28;103214;-76
2023/08/23 00:48:55;;;;;;;7.57;4.90;;;;;;;28.08;67.00;98848.88;4926094;28;104142;-76
2023/08/23 00:51:26;;;;;;;5.28;4.78;;;;;;;28.01;68.36;98856.22;4927361;28;102867;-76
2023/08/23 00:53:54;;;;;;;4.35;3.95;;;;;;;28.56;66.01;98840.16;4913518;28;102847;-76
2023/08/23 00:56:22;;;;;;;3.40;3.20;;;;;;;29.07;63.91;98846.19;4911534;28;103427;-76
2023/08/23 00:58:51;;;;;;;4.07;3.78;;;;;;;29.19;63.17;98849.78;4913610;28;103264;-76
2023/08/23 01:01:19;;;;;;;5.37;4.60;;;;;;;28.86;63.77;98843.88;4930841;28;103094;-76
2023/08/23 01:03:51;;;;;;;5.65;5.15;;;;;;;27.48;69.66;98849.41;4930575;28;102829;-76
2023/08/23 01:06:29;;;;;;;5.27;4.87;;;;;;;27.24;70.94;98852.78;4928819;28;104392;-76
2023/08/23 01:09:06;;;;;;;5.47;4.60;;;;;;;27.89;68.47;98846.25;4913318;28;103844;-76
2023/08/23 01:11:44;;;;;;;3.93;3.63;;;;;;;28.43;66.05;98843.00;4929235;28;102817;-76
2023/08/23 01:14:20;;;;;;;5.88;5.28;;;;;;;27.65;68.61;98842.41;4913370;28;102836;-76
2023/08/23 01:16:50;;;;;;;5.77;5.17;;;;;;;27.30;70.81;98851.91;4929308;28;103253;-77
2023/08/23 01:19:36;;;;;;;5.50;4.97;;;;;;;27.85;68.93;98856.72;4928905;28;103567;-76
2023/08/23 01:22:07;;;;;;;3.90;3.60;;;;;;;28.51;65.56;98851.69;4928845;28;102691;-76
2023/08/23 01:24:39;;;;;;;3.47;3.17;;;;;;;28.81;64.30;98851.88;4912949;28;102936;-76
2023/08/23 01:27:07;;;;;;;5.63;4.60;;;;;;;28.62;64.54;98858.28;4928721;28;104037;-76
2023/08/23 01:29:35;;;;;;;4.07;3.72;;;;;;;28.82;63.87;98858.97;4929390;28;103395;-76
2023/08/23 01:32:15;;;;;;;3.67;3.38;;;;;;;28.73;64.08;98865.75;4913375;28;102852;-76
2023/08/23 01:34:49;;;;;;;4.07;3.73;;;;;;;28.80;64.11;98866.50;4912938;28;103956;-76
2023/08/23 01:37:19;;;;;;;4.47;4.10;;;;;;;28.91;63.58;98873.13;4929344;28;103301;-77
2023/08/23 01:39:52;;;;;;;5.40;4.97;;;;;;;28.41;65.50;98864.94;4928235;28;103311;-76
2023/08/23 01:42:21;;;;;;;5.60;5.10;;;;;;;28.48;65.23;98864.88;4929178;28;102861;-77
2023/08/23 01:44:51;;;;;;;4.28;3.88;;;;;;;28.57;64.43;98867.13;4925143;28;103014;-76
2023/08/23 01:47:20;;;;;;;4.83;4.20;;;;;;;28.68;64.27;98863.72;4909144;28;103238;-76
2023/08/23 01:49:48;;;;;;;6.00;5.10;;;;;;;28.44;64.65;98871.81;4912583;28;103293;-76
2023/08/23 01:52:16;;;;;;;6.07;4.77;;;;;;;28.34;65.58;98876.91;4930097;28;102899;-76
2023/08/23 01:54:44;;;;;;;5.50;5.00;;;;;;;28.30;65.78;98867.53;4928011;28;103890;-76
2023/08/23 01:57:13;;;;;;;5.32;4.57;;;;;;;28.19;66.06;98861.75;4929701;28;103563;-76
2023/08/23 01:59:41;;;;;;;5.63;4.75;;;;;;;28.32;65.70;98857.28;4928491;28;104153;-76
2023/08/23 02:02:08;;;;;;;4.30;3.90;;;;;;;28.30;66.11;98859.38;4928322;28;102874;-76
2023/08/23 02:04:36;;;;;;;6.40;4.97;;;;;;;28.09;66.65;98861.41;4929322;28;103972;-76
2023/08/23 02:07:04;;;;;;;4.97;4.57;;;;;;;27.68;68.41;98860.97;4929825;28;103119;-76
2023/08/23 02:09:33;;;;;;;4.10;3.80;;;;;;;28.02;67.41;98863.28;4929383;28;103183;-76
2023/08/23 02:12:01;;;;;;;6.37;4.93;;;;;;;28.11;66.28;98862.03;4927178;28;102612;-76
2023/08/23 02:14:30;;;;;;;6.30;5.22;;;;;;;27.05;71.86;98858.06;4912396;28;102900;-77
2023/08/23 02:16:58;;;;;;;4.20;3.90;;;;;;;27.86;68.54;98855.66;4929209;28;103719;-76
2023/08/23 02:19:28;;;;;;;6.13;5.18;;;;;;;27.72;67.83;98856.78;4928106;28;103135;-76
2023/08/23 02:21:56;;;;;;;7.38;5.93;;;;;;;26.65;73.92;98859.09;4928213;28;102811;-76
2023/08/23 02:24:24;;;;;;;6.45;5.85;;;;;;;26.68;74.02;98860.56;4912291;28;102846;-76
2023/08/23 02:26:52;;;;;;;4.90;4.50;;;;;;;27.48;70.34;98854.81;4929135;28;103196;-76
2023/08/23 02:29:22;;;;;;;3.75;3.45;;;;;;;27.93;67.88;98859.16;4929256;28;103150;-76
2023/08/23 02:31:51;;;;;;;4.47;4.07;;;;;;;28.16;66.04;98854.03;4929300;28;102784;-76
2023/08/23 02:34:21;;;;;;;3.87;3.67;;;;;;;28.25;65.85;98848.34;4928657;28;102922;-76
2023/08/23 02:36:49;;;;;;;4.60;4.20;;;;;;;28.38;64.93;98859.13;4909632;28;103386;-76
2023/08/23 02:39:17;;;;;;;3.70;3.40;;;;;;;28.50;64.36;98854.63;4927813;28;103778;-76
2023/08/23 02:41:47;;;;;;;4.60;4.20;;;;;;;28.40;65.25;98859.72;4928678;28;103010;-76
2023/08/23 02:44:15;;;;;;;4.27;3.87;;;;;;;28.43;65.30;98860.13;4928044;28;102827;-76
2023/08/23 02:46:42;;;;;;;4.20;3.90;;;;;;;28.45;64.93;98858.00;4911058;28;104200;-76
2023/08/23 02:49:11;;;;;;;4.63;4.23;;;;;;;28.41;65.06;98855.97;4911327;28;103335;-76
2023/08/23 02:51:39;;;;;;;3.88;3.58;;;;;;;28.45;65.07;98847.16;4928466;28;102808;-76
2023/08/23 02:54:10;;;;;;;6.30;5.70;;;;;;;27.44;70.28;98854.41;4928705;28;102826;-76
2023/08/23 02:56:38;;;;;;;5.53;4.70;;;;;;;27.37;70.65;98852.75;4928459;28;103224;-76
2023/08/23 02:59:05;;;;;;;5.28;4.35;;;;;;;27.63;69.50;98850.78;4928832;28;103578;-76
2023/08/23 03:01:35;;;;;;;8.40;5.90;;;;;;;26.45;74.99;98847.44;4909831;28;103019;-76
2023/08/23 03:04:04;;;;;;;6.50;5.90;;;;;;;26.18;76.46;98849.31;4929251;28;102621;-76
2023/08/23 03:06:33;;;;;;;7.00;6.30;;;;;;;25.93;77.90;98849.03;4928692;28;102887;-76
2023/08/23 03:09:01;;;;;;;6.03;5.45;;;;;;;26.69;75.22;98854.94;4910586;28;103199;-76
2023/08/23 03:11:29;;;;;;;6.57;5.72;;;;;;;26.42;75.91;98853.25;4928738;28;102814;-76
2023/08/23 03:13:57;;;;;;;7.18;6.35;;;;;;;25.83;79.17;98851.28;4911177;28;102734;-76
2023/08/23 03:16:25;;;;;;;6.30;5.70;;;;;;;26.44;76.68;98854.72;4910730;28;103811;-76
2023/08/23 03:18:53;;;;;;;5.43;4.93;;;;;;;26.91;73.76;98851.00;4911145;28;103358;-76
2023/08/23 03:21:21;;;;;;;4.38;3.97;;;;;;;27.41;70.91;98852.13;4911719;28;102532;-76
2023/08/23 03:23:50;;;;;;;6.53;5.82;;;;;;;26.62;74.31;98866.81;4927928;28;103822;-76
2023/08/23 03:26:18;;;;;;;7.50;6.53;;;;;;;25.72;79.00;98867.25;4925272;28;105051;-76
2023/08/23 03:28:47;;;;;;;7.60;5.53;;;;;;;26.64;75.22;98868.25;4927001;28;103637;-76
2023/08/23 03:31:17;;;;;;;4.60;4.20;;;;;;;27.19;71.78;98866.97;4928492;28;102619;-76
2023/08/23 03:33:46;;;;;;;4.25;3.95;;;;;;;27.38;70.74;98866.09;4926952;28;102803;-76
2023/08/23 03:36:13;;;;;;;4.40;4.10;;;;;;;27.39;70.48;98858.78;4912689;28;104176;-76
2023/08/23 03:38:41;;;;;;;4.43;4.03;;;;;;;27.46;70.03;98863.16;4926233;28;103392;-76
2023/08/23 03:41:14;;;;;;;4.40;4.10;;;;;;;27.17;72.58;98851.97;4927262;28;102474;-76
2023/08/23 03:43:42;;;;;;;5.68;4.97;;;;;;;27.08;71.49;98851.38;4926507;28;104098;-76
2023/08/23 03:46:10;;;;;;;5.95;5.45;;;;;;;26.95;73.10;98854.94;4927978;28;104341;-76
2023/08/23 03:48:38;;;;;;;5.03;4.65;;;;;;;27.32;71.45;98849.81;4910184;28;103191;-76
2023/08/23 03:51:05;;;;;;;6.22;4.90;;;;;;;27.45;69.78;98855.25;4925343;28;103271;-76
2023/08/23 03:53:33;;;;;;;7.45;6.32;;;;;;;26.73;73.09;98853.47;4910943;28;104000;-76
2023/08/23 03:56:04;;;;;;;5.63;5.13;;;;;;;26.76;74.79;98852.22;4910540;28;104029;-76
2023/08/23 03:58:33;;;;;;;7.03;5.93;;;;;;;26.66;73.84;98849.09;4910442;28;103835;-76
2023/08/23 04:01:03;;;;;;;6.07;5.47;;;;;;;26.79;74.30;98854.53;4926478;28;102715;-76
2023/08/23 04:03:30;;;;;;;4.73;4.33;;;;;;;27.17;71.85;98854.69;4928004;28;102683;-77
2023/08/23 04:05:58;;;;;;;6.35;5.53;;;;;;;27.27;70.59;98857.78;4927658;28;103200;-76
2023/08/23 04:08:28;;;;;;;7.20;6.45;;;;;;;26.13;76.19;98864.47;4910523;28;103773;-76
2023/08/23 04:10:56;;;;;;;6.03;5.50;;;;;;;26.35;75.44;98860.56;4910898;28;103106;-76
2023/08/23 04:13:24;;;;;;;7.10;6.40;;;;;;;25.93;77.96;98859.84;4926915;28;102799;-76
2023/08/23 04:15:53;;;;;;;7.13;6.47;;;;;;;25.70;79.87;98863.94;4925592;28;104086;-77
2023/08/23 04:18:22;;;;;;;6.53;5.87;;;;;;;25.78;79.38;98861.88;4925792;28;103295;-76
2023/08/23 04:20:59;;;;;;;6.25;5.68;;;;;;;25.87;77.66;98855.25;4927185;28;102636;-76
2023/08/23 04:23:27;;;;;;;4.63;4.22;;;;;;;26.54;75.71;98857.03;4925829;28;103907;-76
2023/08/23 04:25:58;;;;;;;5.90;5.35;;;;;;;26.66;74.56;98859.94;4909312;28;103389;-76
2023/08/23 04:28:26;;;;;;;5.80;5.23;;;;;;;26.93;72.01;98848.88;4910293;28;103298;-76
2023/08/23 04:31:00;;;;;;;6.68;5.82;;;;;;;26.23;76.64;98864.94;4910369;28;102823;-76
2023/08/23 04:33:37;;;;;;;6.20;5.70;;;;;;;26.24;77.55;98870.16;4926839;28;104059;-76
2023/08/23 04:36:07;;;;;;;6.40;5.63;;;;;;;26.40;76.69;98869.75;4909801;28;103273;-76
2023/08/23 04:38:34;;;;;;;5.97;5.47;;;;;;;26.47;75.47;98867.03;4910155;28;103469;-76
2023/08/23 04:41:04;;;;;;;6.35;5.80;;;;;;;26.42;75.83;98869.50;4924423;28;103426;-76
2023/08/23 04:43:33;;;;;;;6.30;5.70;;;;;;;26.37;76.30;98870.16;4923560;28;102826;-76
2023/08/23 04:46:07;;;;;;;6.45;5.85;;;;;;;26.50;75.07;98880.16;4922317;28;103235;-76
2023/08/23 04:48:37;;;;;;;6.80;5.93;;;;;;;26.68;75.07;98874.94;4906667;28;103303;-77
2023/08/23 04:51:08;;;;;;;6.18;5.57;;;;;;;26.75;74.32;98880.38;4925909;28;102955;-76
2023/08/23 04:53:36;;;;;;;6.82;6.00;;;;;;;26.43;77.30;98877.44;4926064;28;103940;-76
2023/08/23 04:56:05;;;;;;;4.70;4.30;;;;;;;26.95;74.74;98876.63;4925910;28;103417;-76
2023/08/23 04:58:33;;;;;;;6.45;5.85;;;;;;;26.77;74.31;98876.41;4925915;28;103262;-76
2023/08/23 05:01:04;;;;;;;7.17;6.50;;;;;;;26.10;79.83;98891.94;4927351;28;102756;-76
2023/08/23 05:03:35;;;;;;;7.40;6.57;;;;;;;25.84;81.03;98877.31;4926419;28;103934;-76
2023/08/23 05:06:03;;;;;;;7.27;6.50;;;;;;;25.72;81.95;98883.50;4924343;28;103416;-76
2023/08/23 05:08:34;;;;;;;6.37;5.60;;;;;;;26.22;79.96;98879.50;4926083;28;103441;-76
2023/08/23 05:11:06;;;;;;;6.90;6.30;;;;;;;26.58;78.41;98885.38;4926028;28;102616;-76
2023/08/23 05:13:34;;;;;;;6.43;5.35;;;;;;;27.03;76.34;98883.72;4925501;28;103224;-76
2023/08/23 05:16:03;;;;;;;6.03;5.50;;;;;;;27.06;76.89;98875.97;4925647;28;103509;-76
2023/08/23 05:18:31;;;;;;;7.47;5.60;;;;;;;27.37;74.50;98885.31;4926840;28;103199;-76
2023/08/23 05:21:02;;;;;;;5.93;5.40;;;;;;;27.51;72.98;98878.78;4926038;28;102863;-76
2023/08/23 05:23:30;;;;;;;5.43;4.80;;;;;;;27.67;72.45;98886.47;4922100;28;103972;-76
2023/08/23 05:25:58;;;;;;;8.57;5.80;;;;;;;27.73;72.51;98885.59;4922334;28;103210;-76
2023/08/23 05:28:26;;;;;;;7.22;6.47;;;;;;;27.01;76.34;98881.19;4905845;28;103132;-76
2023/08/23 05:30:54;;;;;;;6.00;5.40;;;;;;;27.13;76.65;98869.69;4905873;28;102862;-76
2023/08/23 05:33:27;;;;;;;6.27;5.67;;;;;;;27.02;75.75;98882.88;4906049;28;103905;-76
2023/08/23 05:35:57;;;;;;;3.97;3.57;;;;;;;27.68;71.40;98879.97;4909184;28;104476;-76
2023/08/23 05:38:26;;;;;;;4.10;3.80;;;;;;;28.03;70.69;98888.59;4927206;28;103174;-76
2023/08/23 05:40:55;;;;;;;8.85;6.78;;;;;;;27.46;73.93;98881.31;4929329;28;102960;-76
2023/08/23 05:43:24;;;;;;;10.18;5.90;;;;;;;27.52;73.35;98883.16;4930009;28;102740;-76
2023/08/23 05:45:53;;;;;;;7.25;4.72;;;;;;;27.89;71.67;98878.84;4929906;28;103344;-76
2023/08/23 05:48:21;;;;;;;12.20;8.02;;;;;;;27.19;74.50;98880.53;4928319;28;103081;-76
2023/08/23 05:50:50;;;;;;;6.53;5.53;;;;;;;27.80;71.81;98883.69;4912985;28;103187;-76
2023/08/23 05:53:20;;;;;;;7.30;6.60;;;;;;;27.03;73.77;98889.94;4929750;28;102841;-76
2023/08/23 05:55:50;;;;;;;8.80;7.15;;;;;;;26.41;75.12;98908.50;4927990;28;103244;-76
2023/08/23 05:58:19;;;;;;;9.35;7.35;;;;;;;26.12;78.49;98896.13;4929961;28;103252;-76
2023/08/23 06:00:48;;;;;;;7.93;6.90;;;;;;;25.99;78.08;98898.81;4929608;28;102785;-76
2023/08/23 06:03:16;;;;;;;8.13;6.95;;;;;;;26.14;77.95;98904.06;4927885;28;102649;-76
2023/08/23 06:05:45;;;;;;;7.75;6.95;;;;;;;26.29;78.28;98908.28;4926635;28;104067;-76
2023/08/23 06:08:13;;;;;;;5.15;4.68;;;;;;;27.65;71.82;98904.81;4927578;28;103873;-76
2023/08/23 06:10:43;;;;;;;7.57;6.83;;;;;;;26.82;74.89;98909.16;4929293;28;102685;-76
2023/08/23 06:13:12;;;;;;;8.43;7.17;;;;;;;26.75;75.40;98911.00;4913026;28;102880;-76
2023/08/23 06:15:41;;;;;;;7.40;6.70;;;;;;;26.91;74.37;98901.66;4928858;28;104090;-76
2023/08/23 06:18:09;;;;;;;9.85;7.43;;;;;;;26.74;75.57;98909.34;4929360;28;103237;-76
2023/08/23 06:20:38;;;;;;;8.27;6.90;;;;;;;26.66;76.31;98909.56;4927732;28;102583;-76
2023/08/23 06:23:07;;;;;;;8.77;7.97;;;;;;;26.64;75.33;98905.38;4928840;28;104092;-76
2023/08/23 06:25:35;;;;;;;7.00;6.40;;;;;;;27.01;75.40;98897.47;4929035;28;103283;-76
2023/08/23 06:28:04;;;;;;;9.18;6.75;;;;;;;26.67;75.47;98905.78;4909268;28;103072;-76
2023/08/23 06:30:35;;;;;;;7.35;6.57;;;;;;;26.87;76.53;98898.53;4909777;28;102624;-76
2023/08/23 06:33:05;;;;;;;8.23;7.13;;;;;;;27.00;75.48;98890.34;4909821;28;103909;-76
2023/08/23 06:35:33;;;;;;;7.60;6.88;;;;;;;27.01;74.82;98894.75;4909291;28;103293;-77
2023/08/23 06:38:01;;;;;;;5.65;5.05;;;;;;;28.49;68.17;98897.25;4928486;28;103228;-76
2023/08/23 06:40:29;;;;;;;4.93;4.53;;;;;;;29.13;66.03;98894.25;4929201;28;102860;-76
2023/08/23 06:42:57;;;;;;;5.20;4.80;;;;;;;29.48;64.49;98901.81;4928902;28;102727;-76
2023/08/23 06:45:25;;;;;;;5.15;4.68;;;;;;;29.75;64.34;98897.75;4910044;28;104878;-76
2023/08/23 06:47:54;;;;;;;5.73;5.23;;;;;;;29.94;62.79;98899.41;4928679;28;103356;-76
2023/08/23 06:50:22;;;;;;;6.60;6.00;;;;;;;29.39;65.17;98906.72;4928855;28;103141;-77
2023/08/23 06:52:50;;;;;;;7.43;6.53;;;;;;;29.29;67.48;98907.28;4928752;28;103805;-76
2023/08/23 06:55:19;;;;;;;6.53;5.63;;;;;;;29.77;63.80;98903.78;4928414;28;103252;-76
2023/08/23 06:57:47;;;;;;;5.00;4.60;;;;;;;30.42;61.36;98902.94;4927649;28;103254;-76
2023/08/23 07:00:20;;;;;;;5.35;4.85;;;;;;;30.75;59.86;98901.56;4928629;28;103023;-76
2023/08/23 07:02:50;;;;;;;4.97;4.43;;;;;;;30.89;59.32;98900.28;4928554;28;103834;-76
2023/08/23 07:05:19;;;;;;;4.77;4.23;;;;;;;31.07;59.25;98897.47;4928581;28;103515;-76
2023/08/23 07:07:49;;;;;;;5.22;4.72;;;;;;;31.09;58.48;98889.88;4928143;28;102618;-76
2023/08/23 07:10:21;;;;;;;5.28;4.78;;;;;;;31.17;57.79;98894.13;4927458;28;102874;-76
2023/08/23 07:12:55;;;;;;;7.45;6.25;;;;;;;30.75;58.92;98896.09;4928721;28;102552;-76
2023/08/23 07:15:23;;;;;;;4.63;4.22;;;;;;;30.92;59.28;98905.25;4928210;28;103555;-76
2023/08/23 07:17:51;;;;;;;7.93;6.53;;;;;;;29.61;62.65;98901.69;4910720;28;103180;-76
2023/08/23 07:20:23;;;;;;;7.20;6.60;;;;;;;29.16;64.57;98904.66;4911190;28;102671;-76
2023/08/23 07:22:53;;;;;;;9.05;6.90;;;;;;;28.52;66.33;98915.84;4926649;28;104320;-76
2023/08/23 07:25:20;;;;;;;9.30;5.82;;;;;;;29.91;62.23;98910.75;4928106;28;103703;-76
2023/08/23 07:27:48;;;;;;;7.27;5.63;;;;;;;29.98;61.45;98903.31;4928163;28;103246;-77
2023/08/23 07:30:17;;;;;;;7.90;7.10;;;;;;;28.75;66.13;98905.25;4928465;28;102787;-77
2023/08/23 07:32:45;;;;;;;7.07;6.38;;;;;;;29.02;66.97;98908.56;4928163;28;103020;-76
2023/08/23 07:35:15;;;;;;;4.40;4.00;;;;;;;31.38;59.94;98905.25;4927282;28;103298;-76
2023/08/23 07:37:45;;;;;;;6.82;6.15;;;;;;;31.36;58.02;98912.88;4928145;28;103307;-77
2023/08/23 07:40:14;;;;;;;6.75;5.78;;;;;;;30.97;57.93;98919.03;4928982;28;102564;-76
2023/08/23 07:42:42;;;;;;;7.18;6.47;;;;;;;30.03;61.21;98922.53;4930483;28;104289;-76
2023/08/23 07:45:10;;;;;;;7.22;5.78;;;;;;;31.32;58.15;98911.69;4932215;28;103364;-76
2023/08/23 07:47:38;;;;;;;5.07;4.68;;;;;;;32.35;55.42;98911.66;4927867;28;103190;-77
2023/08/23 07:50:08;;;;;;;6.30;4.82;;;;;;;32.99;53.86;98912.22;4927733;28;102857;-77
2023/08/23 07:52:36;;;;;;;8.02;6.10;;;;;;;31.13;57.68;98917.53;4928225;28;102988;-76
2023/08/23 07:55:09;;;;;;;7.03;6.05;;;;;;;30.27;60.81;98921.56;4910168;28;104457;-76
2023/08/23 07:57:37;;;;;;;6.78;6.13;;;;;;;30.48;59.29;98916.69;4927478;28;103180;-73
2023/08/23 08:00:06;;;;;;;6.87;6.17;;;;;;;30.03;60.31;98921.72;4926031;28;102800;-74
2023/08/23 08:02:35;;;;;;;4.28;3.88;;;;;;;32.25;56.11;98906.03;4925734;28;104173;-77
2023/08/23 08:05:03;;;;;;;5.87;5.20;;;;;;;32.76;55.38;98909.69;4910528;28;104752;-76
2023/08/23 08:07:31;;;;;;;5.95;4.95;;;;;;;33.58;51.96;98911.50;4927394;28;104053;-76
2023/08/23 08:10:21;;;;;;;7.57;5.87;;;;;;;30.51;56.98;98921.69;4910235;28;102808;-76
2023/08/23 08:12:48;;;;;;;8.77;5.67;;;;;;;31.06;57.32;98912.16;4927705;28;102707;-76
2023/08/23 08:15:17;;;;;;;6.35;5.75;;;;;;;32.22;53.42;98911.16;4927317;28;104308;-76
2023/08/23 08:17:50;;;;;;;5.22;3.83;;;;;;;34.52;50.04;98912.06;4927445;28;103290;-77
2023/08/23 08:20:19;;;;;;;7.10;4.55;;;;;;;34.76;49.40;98913.41;4927729;28;102540;-77
2023/08/23 08:22:47;;;;;;;5.82;5.00;;;;;;;32.84;52.53;98909.25;4927762;28;104042;-76
2023/08/23 08:25:16;;;;;;;5.82;4.90;;;;;;;33.70;50.73;98909.50;4926315;28;103331;-76
2023/08/23 08:27:48;;;;;;;5.07;3.78;;;;;;;35.07;48.67;98920.00;4926869;28;103188;-74
2023/08/23 08:30:17;;;;;;;7.22;4.90;;;;;;;35.70;47.65;98915.44;4927552;28;102595;-77
2023/08/23 08:32:45;;;;;;;4.27;3.87;;;;;;;36.47;45.42;98913.50;4926067;28;103948;-76
2023/08/23 08:35:13;;;;;;;4.63;4.22;;;;;;;37.22;44.55;98908.34;4926986;28;104113;-77
2023/08/23 08:37:41;;;;;;;6.60;4.60;;;;;;;36.67;44.83;98911.91;4926634;28;102989;-77
2023/08/23 08:40:10;;;;;;;5.68;5.07;;;;;;;34.25;50.71;98916.72;4927299;28;102719;-77
2023/08/23 08:42:38;;;;;;;7.15;4.20;;;;;;;35.81;48.35;98904.25;4910047;28;103085;-77
2023/08/23 08:45:09;;;;;;;4.67;4.10;;;;;;;37.60;44.42;98907.69;4927125;28;103921;-77
2023/08/23 08:47:37;;;;;;;4.20;3.80;;;;;;;38.14;42.48;98911.34;4925231;28;103331;-76
2023/08/23 08:50:07;;;;;;;3.57;3.23;;;;;;;38.18;41.48;98906.06;4925571;28;102849;-77
2023/08/23 08:52:37;;;;;;;6.05;4.18;;;;;;;37.29;44.22;98903.34;4926975;28;103830;-77
2023/08/23 08:55:06;;;;;;;6.18;4.35;;;;;;;37.71;43.52;98914.81;4927155;28;103292;-77
2023/08/23 08:57:35;;;;;;;6.72;3.80;;;;;;;38.76;41.56;98912.59;4926165;28;103233;-77
2023/08/23 09:00:07;;;;;;;7.23;4.80;;;;;;;36.80;42.35;98916.88;4926477;28;102717;-77
2023/08/23 09:02:39;;;;;;;5.38;4.10;;;;;;;36.82;43.44;98926.50;4925842;28;104009;-75
2023/08/23 09:05:08;;;;;;;4.55;3.88;;;;;;;38.44;40.62;98912.28;4926657;28;103451;-74
2023/08/23 09:07:37;;;;;;;6.43;4.33;;;;;;;37.37;41.70;98916.53;4926744;28;103193;-74
2023/08/23 09:10:05;;;;;;;5.83;4.03;;;;;;;37.38;43.62;98920.97;4927136;28;102711;-76
2023/08/23 09:12:33;;;;;;;8.60;4.07;;;;;;;37.87;42.99;98916.41;4926660;28;104034;-77
2023/08/23 09:15:05;;;;;;;5.40;4.50;;;;;;;35.36;44.44;98934.19;4928788;28;103433;-76
2023/08/23 09:17:34;;;;;;;5.20;3.93;;;;;;;37.94;41.58;98922.47;4929788;28;103115;-77
2023/08/23 09:20:08;;;;;;;3.47;3.20;;;;;;;39.59;38.67;98931.72;4930453;28;102588;-77
2023/08/23 09:22:38;;;;;;;5.05;3.97;;;;;;;39.91;38.92;98920.88;4925739;28;104224;-77
2023/08/23 09:25:08;;;;;;;5.60;4.43;;;;;;;37.62;42.04;98925.59;4909627;28;103386;-77
2023/08/23 09:27:38;;;;;;;5.05;4.55;;;;;;;37.42;41.94;98924.81;4928628;28;103919;-77
2023/08/23 09:30:07;;;;;;;5.95;4.40;;;;;;;35.10;46.43;98932.34;4930378;28;102573;-77
2023/08/23 09:32:36;;;;;;;7.03;4.68;;;;;;;35.09;46.00;98927.97;4929819;28;104129;-77
2023/08/23 09:35:13;;;;;;;4.53;4.05;;;;;;;35.57;46.92;98922.25;4929524;28;103264;-77
2023/08/23 09:37:41;;;;;;;7.10;4.90;;;;;;;35.12;47.11;98921.97;4929899;28;103254;-77
2023/08/23 09:40:17;;;;;;;7.88;5.20;;;;;;;34.10;49.28;98924.78;4928064;28;102824;-77
2023/08/23 09:42:45;;;;;;;5.95;4.32;;;;;;;35.67;44.19;98911.31;4930390;28;103023;-76
2023/08/23 09:45:17;;;;;;;8.25;5.25;;;;;;;35.85;44.44;98913.59;4928530;28;103456;-77
2023/08/23 09:47:53;;;;;;;5.22;4.60;;;;;;;34.79;44.61;98912.88;4928561;28;104328;-77
2023/08/23 09:50:24;;;;;;;5.10;4.60;;;;;;;33.33;48.93;98907.56;4928480;28;102823;-77
2023/08/23 09:52:57;;;;;;;6.30;4.93;;;;;;;34.04;47.39;98898.38;4927667;28;102992;-76
2023/08/23 09:55:26;;;;;;;5.18;4.60;;;;;;;34.90;45.07;98895.41;4927815;28;103570;-78
2023/08/23 09:57:55;;;;;;;7.82;4.80;;;;;;;33.98;48.35;98893.91;4928686;28;103211;-77
2023/08/23 10:00:24;;;;;;;5.53;4.57;;;;;;;34.31;47.04;98891.00;4927598;28;102744;-77
2023/08/23 10:02:54;;;;;;;5.50;4.35;;;;;;;34.56;47.93;98893.16;4928650;28;102916;-77
2023/08/23 10:05:25;;;;;;;6.78;4.60;;;;;;;36.61;44.81;98880.81;4927273;28;104094;-77
2023/08/23 10:07:56;;;;;;;4.45;3.95;;;;;;;37.55;41.24;98888.44;4929094;28;103150;-77
2023/08/23 10:10:27;;;;;;;3.83;3.47;;;;;;;38.36;38.95;98890.81;4927569;28;102607;-77
2023/08/23 10:13:00;;;;;;;5.70;4.38;;;;;;;35.97;43.28;98892.19;4928390;28;103883;-77
2023/08/23 10:15:32;;;;;;;5.13;4.45;;;;;;;34.11;48.47;98908.06;4927619;28;103411;-76
2023/08/23 10:18:02;;;;;;;7.32;4.28;;;;;;;35.82;44.36;98897.63;4928143;28;103098;-77
2023/08/23 10:20:36;;;;;;;4.70;4.20;;;;;;;37.29;42.05;98884.88;4928177;28;102773;-77
2023/08/23 10:23:12;;;;;;;4.75;4.22;;;;;;;37.67;41.85;98878.72;4928672;28;104137;-77
2023/08/23 10:25:42;;;;;;;4.28;3.88;;;;;;;38.09;39.12;98883.81;4910281;28;103835;-76
2023/08/23 10:28:13;;;;;;;4.50;4.10;;;;;;;37.59;39.60;98872.97;4927921;28;103320;-77
2023/08/23 10:30:43;;;;;;;5.70;4.00;;;;;;;37.39;40.23;98873.03;4927572;28;102680;-76
2023/08/23 10:33:14;;;;;;;4.95;4.43;;;;;;;35.91;42.77;98876.78;4928849;28;102957;-77
2023/08/23 10:35:46;;;;;;;6.45;4.38;;;;;;;34.81;45.29;98888.75;4928102;28;103225;-77
2023/08/23 10:38:15;;;;;;;4.65;4.20;;;;;;;36.01;43.98;98882.31;4928149;28;103323;-76
2023/08/23 10:40:44;;;;;;;7.40;4.40;;;;;;;36.06;42.76;98884.28;4929036;28;102836;-77
2023/08/23 10:43:14;;;;;;;4.50;4.10;;;;;;;34.23;46.33;98877.78;4928732;28;103881;-77
2023/08/23 10:45:50;;;;;;;5.22;4.30;;;;;;;35.62;44.46;98889.31;4933709;28;103490;-77
2023/08/23 10:48:20;;;;;;;7.57;4.40;;;;;;;35.13;43.59;98885.16;4929407;28;103145;-77
2023/08/23 10:50:49;;;;;;;5.33;4.50;;;;;;;35.34;44.70;98879.50;4927962;28;102683;-77
2023/08/23 10:53:18;;;;;;;4.40;3.63;;;;;;;37.33;42.00;98879.66;4928286;28;102848;-77
2023/08/23 10:55:48;;;;;;;3.90;3.60;;;;;;;38.39;40.42;98874.53;4926930;28;103205;-77
2023/08/23 10:58:17;;;;;;;5.25;3.90;;;;;;;38.83;38.32;98879.97;4927817;28;103512;-77
2023/08/23 11:00:50;;;;;;;5.20;3.80;;;;;;;38.71;38.71;98877.56;4926599;28;102691;-77
2023/08/23 11:03:20;;;;;;;12.33;5.27;;;;;;;36.22;42.08;98882.38;4927587;28;102967;-77
2023/08/23 11:05:49;;;;;;;5.75;3.90;;;;;;;36.52;40.70;98871.47;4910098;28;102985;-77
2023/08/23 11:08:17;;;;;;;7.50;4.07;;;;;;;37.87;39.48;98869.53;4926635;28;103142;-77
2023/08/23 11:10:49;;;;;;;4.78;3.80;;;;;;;36.68;41.66;98873.13;4930841;28;102876;-78
2023/08/23 11:13:19;;;;;;;4.82;4.18;;;;;;;36.02;42.40;98873.00;4932093;28;102854;-77
2023/08/23 11:15:47;;;;;;;5.40;4.43;;;;;;;35.94;43.63;98865.25;4936561;28;103286;-77
2023/08/23 11:18:16;;;;;;;4.50;4.07;;;;;;;35.78;42.95;98866.31;4938951;28;102873;-77
2023/08/23 11:20:45;;;;;;;6.13;4.00;;;;;;;36.65;41.49;98870.91;4940225;28;102611;-76
2023/08/23 11:23:16;;;;;;;7.90;4.68;;;;;;;36.17;41.85;98874.13;4936728;28;103098;-77
2023/08/23 11:25:44;;;;;;;5.43;4.55;;;;;;;36.10;42.77;98859.81;4937505;28;103903;-77
2023/08/23 11:28:15;;;;;;;5.55;4.57;;;;;;;34.47;46.42;98865.41;4935498;28;103269;-77
2023/08/23 11:30:49;;;;;;;7.60;4.60;;;;;;;34.92;46.31;98852.06;4918157;28;102529;-77
2023/08/23 11:33:17;;;;;;;9.23;4.77;;;;;;;35.49;44.42;98851.31;4927174;28;103361;-77
2023/08/23 11:35:48;;;;;;;4.60;4.20;;;;;;;37.39;42.04;98853.75;4925086;28;103259;-77